ADDS METAR Data INFO
IDs: Format: Raw Decoded Include TAF

Data at: 0635 UTC 15 Dec 2017

KLVJ 150553Z AUTO 02007KT 10SM FEW120 13/08 A3011 RMK AO2 SLP195 T01330078 10156 20133 401890061 51014
KLVJ 150453Z AUTO 02005KT 10SM CLR 13/08 A3010 RMK AO2 SLP193 T01330078
KLVJ 150353Z AUTO 02005KT 10SM CLR 14/08 A3009 RMK AO2 SLP188 T01390078
KLVJ 150253Z AUTO 36004KT 10SM CLR 14/07 A3007 RMK AO2 SLP181 T01440072 53025
KLVJ 150153Z AUTO 36006KT 10SM CLR 15/07 A3004 RMK AO2 SLP170 T01500067
KLVJ 150053Z AUTO 35005KT 10SM CLR 16/06 A3002 RMK AO2 SLP165 T01560061
KLVJ 142353Z AUTO 00000KT 10SM CLR 15/09 A3000 RMK AO2 SLP156 T01500089 10189 20150 53011
KLVJ 142253Z AUTO 00000KT 10SM CLR 17/09 A2998 RMK AO2 SLP152 T01720089
KLVJ 142153Z AUTO 00000KT 10SM BKN033 18/06 A2997 RMK AO2 SLP147 T01830061
KLVJ 142053Z AUTO 33004KT 10SM SCT034 19/06 A2996 RMK AO2 SLP145 T01890061 55016
KLVJ 141953Z AUTO 00000KT 10SM FEW034 18/07 A2996 RMK AO2 SLP143 T01830067
KLVJ 141853Z AUTO 10SM SCT034 18/08 A2999 RMK AO2 SLP154 T01830078
KLVJ 141753Z AUTO 00000KT 10SM FEW034 17/09 A3001 RMK AO2 SLP162 T01670089 10167 20067 50000
KLVJ 141653Z AUTO 00000KT 10SM CLR 16/09 A3003 RMK AO2 SLP168 T01560094
KLVJ 141553Z AUTO 00000KT 10SM CLR 14/09 A3001 RMK AO2 SLP163 T01440094
KLVJ 141453Z AUTO 00000KT 10SM CLR 12/08 A3001 RMK AO2 SLP161 T01220083 51014
KLVJ 141353Z AUTO 00000KT 10SM CLR 08/07 A3000 RMK AO2 SLP159 T00780067
KLVJ 141253Z AUTO 00000KT 10SM FEW120 08/07 A2998 RMK AO2 SLP151 T00780067
KLVJ 141153Z AUTO 00000KT 10SM CLR 07/06 A2997 RMK AO2 SLP147 T00720061 10100 20061 55001
KLVJ 141053Z AUTO 00000KT 10SM CLR 07/06 A2997 RMK AO2 SLP146 T00720061
KLVJ 140953Z AUTO 00000KT 10SM CLR 08/07 A2997 RMK AO2 SLP146 T00830067
KLVJ 140853Z AUTO 00000KT 10SM CLR 08/06 A2997 RMK AO2 SLP148 T00830061 56008
KLVJ 140753Z AUTO 00000KT 10SM CLR 08/06 A2997 RMK AO2 SLP148 T00830056
KLVJ 140653Z AUTO 00000KT 10SM CLR 09/05 A2998 RMK AO2 SLP151 T00890050
KLVJ 140553Z AUTO 00000KT 10SM CLR 07/05 A2999 RMK AO2 SLP155 T00720050 10100 20067 401440000 56007
KLVJ 140453Z AUTO 00000KT 10SM CLR 09/04 A3000 RMK AO2 SLP158 T00890044
KLVJ 140353Z AUTO 19003KT 10SM CLR 09/04 A3000 RMK AO2 SLP158 T00890044
KLVJ 140253Z AUTO 00000KT 10SM CLR 08/05 A3002 RMK AO2 SLP163 T00780050 56010
KLVJ 140153Z AUTO 00000KT 10SM CLR 08/05 A3003 RMK AO2 SLP166 T00830050
KLVJ 140053Z AUTO 00000KT 10SM CLR 09/04 A3003 RMK AO2 SLP168 T00940044
KLVJ 132353Z AUTO 00000KT 10SM CLR 10/04 A3005 RMK AO2 SLP173 T01000039 10144 20100 56008
KLVJ 132253Z AUTO 24003KT 10SM CLR 13/02 A3005 RMK AO2 SLP176 T01330017
KLVJ 132153Z AUTO 24003KT 10SM CLR 14/01 A3006 RMK AO2 SLP179 T01440006
KLVJ 132053Z AUTO 20004KT 10SM CLR 14/M01 A3007 RMK AO2 SLP182 T01441006 58030
KLVJ 131953Z AUTO 25005KT 10SM CLR 14/M01 A3010 RMK AO2 SLP192 T01441011
KLVJ 131853Z AUTO 25004KT 10SM CLR 14/M01 A3014 RMK AO2 SLP204 T01391006